sensor_id;sensor_type;location;lat;lon;timestamp;temperature;humidity
17998;DHT22;9124;48.144;17.098;2023-03-14T00:04:05;8.10;66.20
17998;DHT22;9124;48.144;17.098;2023-03-14T00:07:41;8.00;65.70
17998;DHT22;9124;48.144;17.098;2023-03-14T00:11:20;8.10;66.00
17998;DHT22;9124;48.144;17.098;2023-03-14T00:14:56;8.10;66.30
17998;DHT22;9124;48.144;17.098;2023-03-14T00:18:33;8.10;66.30
17998;DHT22;9124;48.144;17.098;2023-03-14T00:22:09;8.10;66.40
17998;DHT22;9124;48.144;17.098;2023-03-14T00:25:46;8.10;66.40
17998;DHT22;9124;48.144;17.098;2023-03-14T00:29:22;8.10;66.70
17998;DHT22;9124;48.144;17.098;2023-03-14T00:32:59;8.00;66.70
17998;DHT22;9124;48.144;17.098;2023-03-14T00:36:35;8.00;67.00
17998;DHT22;9124;48.144;17.098;2023-03-14T00:40:12;8.00;67.10
17998;DHT22;9124;48.144;17.098;2023-03-14T00:43:49;8.00;67.30
17998;DHT22;9124;48.144;17.098;2023-03-14T00:47:25;7.90;67.60
17998;DHT22;9124;48.144;17.098;2023-03-14T00:51:04;7.90;67.50
17998;DHT22;9124;48.144;17.098;2023-03-14T00:54:40;7.90;67.80
17998;DHT22;9124;48.144;17.098;2023-03-14T00:58:18;8.00;68.10
17998;DHT22;9124;48.144;17.098;2023-03-14T01:01:54;8.00;68.00
17998;DHT22;9124;48.144;17.098;2023-03-14T01:05:31;8.00;68.20
17998;DHT22;9124;48.144;17.098;2023-03-14T01:09:07;7.90;68.50
17998;DHT22;9124;48.144;17.098;2023-03-14T01:12:44;7.90;68.60
17998;DHT22;9124;48.144;17.098;2023-03-14T01:16:21;7.90;68.50
17998;DHT22;9124;48.144;17.098;2023-03-14T01:19:59;7.80;68.50
17998;DHT22;9124;48.144;17.098;2023-03-14T01:23:36;7.80;68.80
17998;DHT22;9124;48.144;17.098;2023-03-14T01:27:13;7.70;68.80
17998;DHT22;9124;48.144;17.098;2023-03-14T01:30:49;7.70;69.00
17998;DHT22;9124;48.144;17.098;2023-03-14T01:34:25;7.70;69.30
17998;DHT22;9124;48.144;17.098;2023-03-14T01:38:02;7.70;69.20
17998;DHT22;9124;48.144;17.098;2023-03-14T01:41:39;7.60;69.20
17998;DHT22;9124;48.144;17.098;2023-03-14T01:54:38;7.50;69.60
17998;DHT22;9124;48.144;17.098;2023-03-14T01:58:17;7.40;69.60
17998;DHT22;9124;48.144;17.098;2023-03-14T02:01:54;7.40;69.70
17998;DHT22;9124;48.144;17.098;2023-03-14T02:05:35;7.30;69.90
17998;DHT22;9124;48.144;17.098;2023-03-14T02:09:23;7.30;70.10
17998;DHT22;9124;48.144;17.098;2023-03-14T02:13:03;7.30;70.20
17998;DHT22;9124;48.144;17.098;2023-03-14T02:16:55;7.30;70.70
17998;DHT22;9124;48.144;17.098;2023-03-14T02:28:44;7.40;70.90
17998;DHT22;9124;48.144;17.098;2023-03-14T02:32:22;7.40;70.80
17998;DHT22;9124;48.144;17.098;2023-03-14T02:36:02;7.40;71.10
17998;DHT22;9124;48.144;17.098;2023-03-14T02:39:43;7.40;71.10
17998;DHT22;9124;48.144;17.098;2023-03-14T02:43:21;7.40;71.20
17998;DHT22;9124;48.144;17.098;2023-03-14T02:47:04;7.40;71.20
17998;DHT22;9124;48.144;17.098;2023-03-14T02:50:44;7.40;71.40
17998;DHT22;9124;48.144;17.098;2023-03-14T02:54:21;7.50;71.60
17998;DHT22;9124;48.144;17.098;2023-03-14T02:57:59;7.50;71.50
17998;DHT22;9124;48.144;17.098;2023-03-14T03:01:35;7.50;71.60
17998;DHT22;9124;48.144;17.098;2023-03-14T03:05:12;7.60;71.70
17998;DHT22;9124;48.144;17.098;2023-03-14T03:08:48;7.70;71.80
17998;DHT22;9124;48.144;17.098;2023-03-14T03:12:25;7.70;71.90
17998;DHT22;9124;48.144;17.098;2023-03-14T03:16:02;7.70;71.80
17998;DHT22;9124;48.144;17.098;2023-03-14T03:19:38;7.70;71.90
17998;DHT22;9124;48.144;17.098;2023-03-14T03:23:15;7.80;72.30
17998;DHT22;9124;48.144;17.098;2023-03-14T03:26:52;7.90;72.30
17998;DHT22;9124;48.144;17.098;2023-03-14T03:30:29;8.00;72.30
17998;DHT22;9124;48.144;17.098;2023-03-14T03:34:05;8.00;72.20
17998;DHT22;9124;48.144;17.098;2023-03-14T03:37:42;8.00;72.30
17998;DHT22;9124;48.144;17.098;2023-03-14T03:41:19;8.00;72.40
17998;DHT22;9124;48.144;17.098;2023-03-14T03:44:58;8.00;72.40
17998;DHT22;9124;48.144;17.098;2023-03-14T03:48:35;8.00;72.40
17998;DHT22;9124;48.144;17.098;2023-03-14T03:52:14;8.00;72.40
17998;DHT22;9124;48.144;17.098;2023-03-14T03:55:51;8.00;72.60
17998;DHT22;9124;48.144;17.098;2023-03-14T03:59:27;8.10;72.70
17998;DHT22;9124;48.144;17.098;2023-03-14T04:03:03;8.10;72.70
17998;DHT22;9124;48.144;17.098;2023-03-14T04:06:40;8.10;72.70
17998;DHT22;9124;48.144;17.098;2023-03-14T04:10:17;8.00;72.70
17998;DHT22;9124;48.144;17.098;2023-03-14T04:23:23;8.00;73.10
17998;DHT22;9124;48.144;17.098;2023-03-14T04:27:00;8.10;73.20
17998;DHT22;9124;48.144;17.098;2023-03-14T04:30:37;8.10;73.30
17998;DHT22;9124;48.144;17.098;2023-03-14T04:34:23;8.10;73.30
17998;DHT22;9124;48.144;17.098;2023-03-14T04:38:04;8.10;73.30
17998;DHT22;9124;48.144;17.098;2023-03-14T04:41:44;8.10;73.40
17998;DHT22;9124;48.144;17.098;2023-03-14T04:45:21;8.10;73.40
17998;DHT22;9124;48.144;17.098;2023-03-14T04:48:58;8.10;73.50
17998;DHT22;9124;48.144;17.098;2023-03-14T04:52:35;8.10;73.60
17998;DHT22;9124;48.144;17.098;2023-03-14T04:56:12;8.10;73.70
17998;DHT22;9124;48.144;17.098;2023-03-14T04:59:51;8.10;73.80
17998;DHT22;9124;48.144;17.098;2023-03-14T05:03:51;8.10;73.80
17998;DHT22;9124;48.144;17.098;2023-03-14T05:07:34;8.10;73.90
17998;DHT22;9124;48.144;17.098;2023-03-14T05:11:32;8.10;73.90
17998;DHT22;9124;48.144;17.098;2023-03-14T05:15:27;8.10;74.00
17998;DHT22;9124;48.144;17.098;2023-03-14T05:19:22;8.10;74.00
17998;DHT22;9124;48.144;17.098;2023-03-14T05:23:17;8.10;74.10
17998;DHT22;9124;48.144;17.098;2023-03-14T05:27:14;8.10;74.20
17998;DHT22;9124;48.144;17.098;2023-03-14T05:31:10;8.00;74.20
17998;DHT22;9124;48.144;17.098;2023-03-14T05:35:04;8.00;74.30
17998;DHT22;9124;48.144;17.098;2023-03-14T05:39:17;8.00;74.50
17998;DHT22;9124;48.144;17.098;2023-03-14T05:43:17;8.10;74.60
17998;DHT22;9124;48.144;17.098;2023-03-14T05:47:22;8.10;74.70
17998;DHT22;9124;48.144;17.098;2023-03-14T05:51:25;8.10;74.80
17998;DHT22;9124;48.144;17.098;2023-03-14T05:55:21;8.20;74.90
17998;DHT22;9124;48.144;17.098;2023-03-14T05:58:58;8.30;75.00
17998;DHT22;9124;48.144;17.098;2023-03-14T06:02:43;8.40;75.00
17998;DHT22;9124;48.144;17.098;2023-03-14T06:06:29;8.40;75.00
17998;DHT22;9124;48.144;17.098;2023-03-14T06:10:08;8.40;75.00
17998;DHT22;9124;48.144;17.098;2023-03-14T06:13:46;8.40;75.10
17998;DHT22;9124;48.144;17.098;2023-03-14T06:17:23;8.50;75.20
17998;DHT22;9124;48.144;17.098;2023-03-14T06:30:15;8.70;75.50
17998;DHT22;9124;48.144;17.098;2023-03-14T06:33:52;8.90;75.50
17998;DHT22;9124;48.144;17.098;2023-03-14T06:37:29;9.10;75.60
17998;DHT22;9124;48.144;17.098;2023-03-14T06:41:07;9.30;75.50
17998;DHT22;9124;48.144;17.098;2023-03-14T06:44:50;9.50;75.40
17998;DHT22;9124;48.144;17.098;2023-03-14T06:48:26;9.90;75.20
17998;DHT22;9124;48.144;17.098;2023-03-14T06:52:04;11.50;76.00
17998;DHT22;9124;48.144;17.098;2023-03-14T06:55:40;12.90;74.70
17998;DHT22;9124;48.144;17.098;2023-03-14T06:59:18;14.20;72.70
17998;DHT22;9124;48.144;17.098;2023-03-14T07:02:57;13.60;70.70
17998;DHT22;9124;48.144;17.098;2023-03-14T07:06:40;13.10;70.20
17998;DHT22;9124;48.144;17.098;2023-03-14T07:10:20;12.90;70.40
17998;DHT22;9124;48.144;17.098;2023-03-14T07:13:57;13.10;70.40
17998;DHT22;9124;48.144;17.098;2023-03-14T07:17:33;13.40;70.10
17998;DHT22;9124;48.144;17.098;2023-03-14T07:21:10;13.70;69.40
17998;DHT22;9124;48.144;17.098;2023-03-14T07:24:47;13.90;69.00
17998;DHT22;9124;48.144;17.098;2023-03-14T07:28:24;14.10;68.60
17998;DHT22;9124;48.144;17.098;2023-03-14T07:32:07;14.20;68.30
17998;DHT22;9124;48.144;17.098;2023-03-14T07:35:45;14.30;68.00
17998;DHT22;9124;48.144;17.098;2023-03-14T07:39:22;14.60;68.00
17998;DHT22;9124;48.144;17.098;2023-03-14T07:43:21;15.10;67.30
17998;DHT22;9124;48.144;17.098;2023-03-14T07:46:58;15.50;66.90
17998;DHT22;9124;48.144;17.098;2023-03-14T07:50:35;16.10;66.00
17998;DHT22;9124;48.144;17.098;2023-03-14T07:54:11;16.40;65.30
17998;DHT22;9124;48.144;17.098;2023-03-14T07:57:48;16.50;64.30
17998;DHT22;9124;48.144;17.098;2023-03-14T08:01:24;16.30;63.60
17998;DHT22;9124;48.144;17.098;2023-03-14T08:05:01;16.10;63.20
17998;DHT22;9124;48.144;17.098;2023-03-14T08:08:38;15.60;63.00
17998;DHT22;9124;48.144;17.098;2023-03-14T08:12:15;15.20;63.20
17998;DHT22;9124;48.144;17.098;2023-03-14T08:15:52;14.90;63.40
17998;DHT22;9124;48.144;17.098;2023-03-14T08:19:28;14.90;63.50
17998;DHT22;9124;48.144;17.098;2023-03-14T08:23:05;15.00;63.10
17998;DHT22;9124;48.144;17.098;2023-03-14T08:26:41;14.90;63.10
17998;DHT22;9124;48.144;17.098;2023-03-14T08:30:19;14.90;63.20
17998;DHT22;9124;48.144;17.098;2023-03-14T08:33:59;15.10;62.80
17998;DHT22;9124;48.144;17.098;2023-03-14T08:37:36;15.20;62.40
17998;DHT22;9124;48.144;17.098;2023-03-14T08:41:12;15.00;62.20
17998;DHT22;9124;48.144;17.098;2023-03-14T08:54:01;15.00;62.10
17998;DHT22;9124;48.144;17.098;2023-03-14T08:57:38;15.00;62.40
17998;DHT22;9124;48.144;17.098;2023-03-14T09:01:14;15.20;62.40
17998;DHT22;9124;48.144;17.098;2023-03-14T09:04:51;15.20;62.10
17998;DHT22;9124;48.144;17.098;2023-03-14T09:08:28;15.10;62.10
17998;DHT22;9124;48.144;17.098;2023-03-14T09:12:04;14.90;62.20
17998;DHT22;9124;48.144;17.098;2023-03-14T09:15:41;14.80;63.00
17998;DHT22;9124;48.144;17.098;2023-03-14T09:19:18;14.70;62.60
17998;DHT22;9124;48.144;17.098;2023-03-14T09:22:54;14.80;62.80
17998;DHT22;9124;48.144;17.098;2023-03-14T09:26:31;14.90;63.00
17998;DHT22;9124;48.144;17.098;2023-03-14T09:30:08;15.10;63.20
17998;DHT22;9124;48.144;17.098;2023-03-14T09:33:45;15.20;63.00
17998;DHT22;9124;48.144;17.098;2023-03-14T09:37:21;15.30;62.90
17998;DHT22;9124;48.144;17.098;2023-03-14T09:40:59;15.40;62.90
17998;DHT22;9124;48.144;17.098;2023-03-14T09:44:41;15.40;62.80
17998;DHT22;9124;48.144;17.098;2023-03-14T09:48:24;15.60;62.80
17998;DHT22;9124;48.144;17.098;2023-03-14T09:52:29;16.50;62.60
17998;DHT22;9124;48.144;17.098;2023-03-14T09:56:04;17.10;61.80
17998;DHT22;9124;48.144;17.098;2023-03-14T09:59:46;17.80;61.50
17998;DHT22;9124;48.144;17.098;2023-03-14T10:03:33;18.60;60.90
17998;DHT22;9124;48.144;17.098;2023-03-14T10:07:28;18.80;59.80
17998;DHT22;9124;48.144;17.098;2023-03-14T10:11:05;18.10;59.40
17998;DHT22;9124;48.144;17.098;2023-03-14T10:14:51;17.60;59.80
17998;DHT22;9124;48.144;17.098;2023-03-14T10:18:30;17.10;60.20
17998;DHT22;9124;48.144;17.098;2023-03-14T10:22:14;16.90;60.60
17998;DHT22;9124;48.144;17.098;2023-03-14T10:38:49;17.50;60.30
17998;DHT22;9124;48.144;17.098;2023-03-14T10:42:28;17.70;60.10
17998;DHT22;9124;48.144;17.098;2023-03-14T10:46:14;17.60;59.70
17998;DHT22;9124;48.144;17.098;2023-03-14T10:50:30;17.80;59.40
17998;DHT22;9124;48.144;17.098;2023-03-14T10:54:21;17.60;59.10
17998;DHT22;9124;48.144;17.098;2023-03-14T10:57:59;17.10;59.10
17998;DHT22;9124;48.144;17.098;2023-03-14T11:05:30;16.20;60.00
17998;DHT22;9124;48.144;17.098;2023-03-14T11:09:17;16.00;60.20
17998;DHT22;9124;48.144;17.098;2023-03-14T11:13:22;15.70;60.40
17998;DHT22;9124;48.144;17.098;2023-03-14T11:21:23;15.50;61.00
17998;DHT22;9124;48.144;17.098;2023-03-14T11:29:41;15.40;61.10
17998;DHT22;9124;48.144;17.098;2023-03-14T11:37:36;15.20;61.60
17998;DHT22;9124;48.144;17.098;2023-03-14T11:41:31;15.00;61.80
17998;DHT22;9124;48.144;17.098;2023-03-14T11:45:37;14.90;62.30
17998;DHT22;9124;48.144;17.098;2023-03-14T11:53:19;14.70;62.90
17998;DHT22;9124;48.144;17.098;2023-03-14T11:57:21;14.60;63.20
17998;DHT22;9124;48.144;17.098;2023-03-14T12:00:58;14.50;63.50
17998;DHT22;9124;48.144;17.098;2023-03-14T12:08:43;14.40;64.20
17998;DHT22;9124;48.144;17.098;2023-03-14T12:12:24;14.30;64.50
17998;DHT22;9124;48.144;17.098;2023-03-14T12:16:19;14.10;65.10
17998;DHT22;9124;48.144;17.098;2023-03-14T12:20:18;13.90;65.90
17998;DHT22;9124;48.144;17.098;2023-03-14T12:23:57;13.60;66.80
17998;DHT22;9124;48.144;17.098;2023-03-14T12:35:38;12.90;69.00
17998;DHT22;9124;48.144;17.098;2023-03-14T12:39:54;12.80;70.00
17998;DHT22;9124;48.144;17.098;2023-03-14T12:43:34;12.60;70.80
17998;DHT22;9124;48.144;17.098;2023-03-14T12:51:19;12.50;72.10
17998;DHT22;9124;48.144;17.098;2023-03-14T12:55:24;12.40;72.50
17998;DHT22;9124;48.144;17.098;2023-03-14T13:03:18;12.30;73.90
17998;DHT22;9124;48.144;17.098;2023-03-14T13:07:00;12.30;74.60
17998;DHT22;9124;48.144;17.098;2023-03-14T13:15:34;12.10;75.70
17998;DHT22;9124;48.144;17.098;2023-03-14T13:23:58;12.00;76.70
17998;DHT22;9124;48.144;17.098;2023-03-14T13:27:35;11.90;77.00
17998;DHT22;9124;48.144;17.098;2023-03-14T13:31:24;11.70;77.20
17998;DHT22;9124;48.144;17.098;2023-03-14T13:35:00;11.60;77.90
17998;DHT22;9124;48.144;17.098;2023-03-14T13:38:37;11.50;78.10
17998;DHT22;9124;48.144;17.098;2023-03-14T13:42:15;11.50;78.50
17998;DHT22;9124;48.144;17.098;2023-03-14T13:46:01;11.40;78.90
17998;DHT22;9124;48.144;17.098;2023-03-14T13:49:38;11.40;79.30
17998;DHT22;9124;48.144;17.098;2023-03-14T13:53:15;11.30;79.70
17998;DHT22;9124;48.144;17.098;2023-03-14T13:57:03;11.40;80.10
17998;DHT22;9124;48.144;17.098;2023-03-14T14:00:40;11.50;81.30
17998;DHT22;9124;48.144;17.098;2023-03-14T14:04:19;11.50;80.60
17998;DHT22;9124;48.144;17.098;2023-03-14T14:07:57;11.40;81.80
17998;DHT22;9124;48.144;17.098;2023-03-14T14:11:59;11.30;81.50
17998;DHT22;9124;48.144;17.098;2023-03-14T14:15:41;11.20;82.00
17998;DHT22;9124;48.144;17.098;2023-03-14T14:19:22;11.10;82.40
17998;DHT22;9124;48.144;17.098;2023-03-14T14:23:20;11.10;83.00
17998;DHT22;9124;48.144;17.098;2023-03-14T14:27:10;10.90;83.60
17998;DHT22;9124;48.144;17.098;2023-03-14T14:31:17;10.80;84.10
17998;DHT22;9124;48.144;17.098;2023-03-14T14:34:57;10.80;84.70
17998;DHT22;9124;48.144;17.098;2023-03-14T14:38:33;10.70;85.00
17998;DHT22;9124;48.144;17.098;2023-03-14T14:42:15;10.60;85.70
17998;DHT22;9124;48.144;17.098;2023-03-14T14:45:54;10.50;86.50
17998;DHT22;9124;48.144;17.098;2023-03-14T14:49:34;10.50;87.00
17998;DHT22;9124;48.144;17.098;2023-03-14T14:53:25;10.60;87.50
17998;DHT22;9124;48.144;17.098;2023-03-14T14:57:04;10.50;88.20
17998;DHT22;9124;48.144;17.098;2023-03-14T15:00:41;10.50;89.30
17998;DHT22;9124;48.144;17.098;2023-03-14T15:04:30;10.50;89.30
17998;DHT22;9124;48.144;17.098;2023-03-14T15:08:10;10.40;89.80
17998;DHT22;9124;48.144;17.098;2023-03-14T15:11:48;10.40;90.10
17998;DHT22;9124;48.144;17.098;2023-03-14T15:24:42;10.40;90.80
17998;DHT22;9124;48.144;17.098;2023-03-14T15:28:21;10.30;90.90
17998;DHT22;9124;48.144;17.098;2023-03-14T15:31:58;10.30;91.30
17998;DHT22;9124;48.144;17.098;2023-03-14T15:35:36;10.40;91.60
17998;DHT22;9124;48.144;17.098;2023-03-14T15:39:13;10.40;91.80
17998;DHT22;9124;48.144;17.098;2023-03-14T15:42:49;10.40;91.90
17998;DHT22;9124;48.144;17.098;2023-03-14T15:46:26;10.40;92.10
17998;DHT22;9124;48.144;17.098;2023-03-14T15:50:04;10.40;92.40
17998;DHT22;9124;48.144;17.098;2023-03-14T15:53:41;10.30;92.70
17998;DHT22;9124;48.144;17.098;2023-03-14T15:57:19;10.30;92.90
17998;DHT22;9124;48.144;17.098;2023-03-14T16:00:55;10.30;93.00
17998;DHT22;9124;48.144;17.098;2023-03-14T16:04:32;10.20;93.30
17998;DHT22;9124;48.144;17.098;2023-03-14T16:08:08;10.20;93.50
17998;DHT22;9124;48.144;17.098;2023-03-14T16:11:45;10.20;93.70
17998;DHT22;9124;48.144;17.098;2023-03-14T16:15:22;10.20;93.90
17998;DHT22;9124;48.144;17.098;2023-03-14T16:18:59;10.20;94.10
17998;DHT22;9124;48.144;17.098;2023-03-14T16:22:35;10.20;94.30
17998;DHT22;9124;48.144;17.098;2023-03-14T16:26:14;10.30;94.60
17998;DHT22;9124;48.144;17.098;2023-03-14T16:29:50;10.30;94.90
17998;DHT22;9124;48.144;17.098;2023-03-14T16:33:28;10.20;95.00
17998;DHT22;9124;48.144;17.098;2023-03-14T16:37:04;10.20;95.30
17998;DHT22;9124;48.144;17.098;2023-03-14T16:40:41;10.20;95.70
17998;DHT22;9124;48.144;17.098;2023-03-14T16:44:17;10.10;95.80
17998;DHT22;9124;48.144;17.098;2023-03-14T16:47:53;10.10;96.10
17998;DHT22;9124;48.144;17.098;2023-03-14T16:51:30;10.20;96.30
17998;DHT22;9124;48.144;17.098;2023-03-14T16:55:07;10.10;96.50
17998;DHT22;9124;48.144;17.098;2023-03-14T16:58:43;10.10;96.80
17998;DHT22;9124;48.144;17.098;2023-03-14T17:02:20;10.00;97.10
17998;DHT22;9124;48.144;17.098;2023-03-14T17:05:56;10.00;97.30
17998;DHT22;9124;48.144;17.098;2023-03-14T17:18:51;9.60;98.10
17998;DHT22;9124;48.144;17.098;2023-03-14T17:22:28;9.50;98.20
17998;DHT22;9124;48.144;17.098;2023-03-14T17:26:04;9.50;98.50
17998;DHT22;9124;48.144;17.098;2023-03-14T17:29:41;9.50;98.80
17998;DHT22;9124;48.144;17.098;2023-03-14T17:33:17;9.50;99.10
17998;DHT22;9124;48.144;17.098;2023-03-14T17:36:54;9.50;99.30
17998;DHT22;9124;48.144;17.098;2023-03-14T17:40:30;9.60;99.40
17998;DHT22;9124;48.144;17.098;2023-03-14T17:44:07;9.60;99.70
17998;DHT22;9124;48.144;17.098;2023-03-14T17:47:45;9.60;99.90
17998;DHT22;9124;48.144;17.098;2023-03-14T17:51:22;9.60;99.90
17998;DHT22;9124;48.144;17.098;2023-03-14T17:54:58;9.60;99.90
17998;DHT22;9124;48.144;17.098;2023-03-14T17:58:35;9.60;99.90
17998;DHT22;9124;48.144;17.098;2023-03-14T18:02:12;9.60;99.90
17998;DHT22;9124;48.144;17.098;2023-03-14T18:05:49;9.60;99.90
17998;DHT22;9124;48.144;17.098;2023-03-14T18:09:25;9.60;99.90
17998;DHT22;9124;48.144;17.098;2023-03-14T18:13:02;9.60;99.90
17998;DHT22;9124;48.144;17.098;2023-03-14T18:16:38;9.50;99.90
17998;DHT22;9124;48.144;17.098;2023-03-14T18:20:15;9.60;99.90
17998;DHT22;9124;48.144;17.098;2023-03-14T18:23:51;9.60;99.90
17998;DHT22;9124;48.144;17.098;2023-03-14T18:27:29;9.60;99.90
17998;DHT22;9124;48.144;17.098;2023-03-14T18:31:07;9.60;99.90
17998;DHT22;9124;48.144;17.098;2023-03-14T18:34:44;9.60;99.90
17998;DHT22;9124;48.144;17.098;2023-03-14T18:38:21;9.60;99.90
17998;DHT22;9124;48.144;17.098;2023-03-14T18:41:57;9.60;99.90
17998;DHT22;9124;48.144;17.098;2023-03-14T18:45:33;9.60;99.90
17998;DHT22;9124;48.144;17.098;2023-03-14T18:49:10;9.70;99.90
17998;DHT22;9124;48.144;17.098;2023-03-14T18:58:11;9.70;99.90
17998;DHT22;9124;48.144;17.098;2023-03-14T19:01:48;9.60;99.90
17998;DHT22;9124;48.144;17.098;2023-03-14T19:05:24;9.50;99.90
17998;DHT22;9124;48.144;17.098;2023-03-14T19:09:01;9.50;99.90
17998;DHT22;9124;48.144;17.098;2023-03-14T19:12:40;9.40;99.90
17998;DHT22;9124;48.144;17.098;2023-03-14T19:16:17;9.40;99.90
17998;DHT22;9124;48.144;17.098;2023-03-14T19:19:53;9.30;99.90
17998;DHT22;9124;48.144;17.098;2023-03-14T19:42:43;9.50;99.90
17998;DHT22;9124;48.144;17.098;2023-03-14T19:46:44;9.50;99.90
17998;DHT22;9124;48.144;17.098;2023-03-14T19:50:23;9.60;99.90
17998;DHT22;9124;48.144;17.098;2023-03-14T19:54:00;9.60;99.90
17998;DHT22;9124;48.144;17.098;2023-03-14T19:57:40;9.50;99.90
17998;DHT22;9124;48.144;17.098;2023-03-14T20:01:16;9.60;99.90
17998;DHT22;9124;48.144;17.098;2023-03-14T20:04:54;9.60;99.90
17998;DHT22;9124;48.144;17.098;2023-03-14T20:08:30;9.60;99.90
17998;DHT22;9124;48.144;17.098;2023-03-14T20:12:08;9.70;99.90
17998;DHT22;9124;48.144;17.098;2023-03-14T20:15:45;9.70;99.90
17998;DHT22;9124;48.144;17.098;2023-03-14T20:19:31;9.70;99.90
17998;DHT22;9124;48.144;17.098;2023-03-14T20:23:10;9.80;99.90
17998;DHT22;9124;48.144;17.098;2023-03-14T20:26:47;9.90;99.90
17998;DHT22;9124;48.144;17.098;2023-03-14T20:30:24;9.90;99.90
17998;DHT22;9124;48.144;17.098;2023-03-14T20:38:39;9.90;99.90
17998;DHT22;9124;48.144;17.098;2023-03-14T20:42:16;9.80;99.90
17998;DHT22;9124;48.144;17.098;2023-03-14T20:46:18;9.70;99.90
17998;DHT22;9124;48.144;17.098;2023-03-14T20:49:54;9.60;99.90
17998;DHT22;9124;48.144;17.098;2023-03-14T20:58:31;9.50;99.90
17998;DHT22;9124;48.144;17.098;2023-03-14T21:02:09;9.50;99.90
17998;DHT22;9124;48.144;17.098;2023-03-14T21:11:16;9.50;99.90
17998;DHT22;9124;48.144;17.098;2023-03-14T21:14:52;9.60;99.90
17998;DHT22;9124;48.144;17.098;2023-03-14T21:18:29;9.60;99.90
17998;DHT22;9124;48.144;17.098;2023-03-14T21:22:06;9.60;99.90
17998;DHT22;9124;48.144;17.098;2023-03-14T21:25:42;9.60;99.90
17998;DHT22;9124;48.144;17.098;2023-03-14T21:34:16;9.60;99.90
17998;DHT22;9124;48.144;17.098;2023-03-14T21:37:56;9.50;99.90
17998;DHT22;9124;48.144;17.098;2023-03-14T21:41:32;9.40;99.90
17998;DHT22;9124;48.144;17.098;2023-03-14T21:45:09;9.40;99.90
17998;DHT22;9124;48.144;17.098;2023-03-14T21:58:05;9.50;99.90
17998;DHT22;9124;48.144;17.098;2023-03-14T22:01:41;9.60;99.60
17998;DHT22;9124;48.144;17.098;2023-03-14T22:05:18;9.60;99.10
17998;DHT22;9124;48.144;17.098;2023-03-14T22:08:54;9.50;98.50
17998;DHT22;9124;48.144;17.098;2023-03-14T22:12:31;9.40;98.10
17998;DHT22;9124;48.144;17.098;2023-03-14T22:16:07;9.30;97.60
17998;DHT22;9124;48.144;17.098;2023-03-14T22:19:44;9.30;97.00
17998;DHT22;9124;48.144;17.098;2023-03-14T22:23:20;9.20;96.70
17998;DHT22;9124;48.144;17.098;2023-03-14T22:26:56;9.20;96.40
17998;DHT22;9124;48.144;17.098;2023-03-14T22:30:33;9.20;96.10
17998;DHT22;9124;48.144;17.098;2023-03-14T22:34:09;9.20;95.80
17998;DHT22;9124;48.144;17.098;2023-03-14T22:37:45;9.20;95.70
17998;DHT22;9124;48.144;17.098;2023-03-14T22:41:21;9.20;95.60
17998;DHT22;9124;48.144;17.098;2023-03-14T22:44:58;9.20;95.40
17998;DHT22;9124;48.144;17.098;2023-03-14T22:48:34;9.20;95.30
17998;DHT22;9124;48.144;17.098;2023-03-14T22:52:11;9.20;94.90
17998;DHT22;9124;48.144;17.098;2023-03-14T22:55:55;9.20;94.50
17998;DHT22;9124;48.144;17.098;2023-03-14T22:59:31;9.20;94.20
17998;DHT22;9124;48.144;17.098;2023-03-14T23:03:07;9.20;93.90
17998;DHT22;9124;48.144;17.098;2023-03-14T23:06:44;9.20;93.50
17998;DHT22;9124;48.144;17.098;2023-03-14T23:10:20;9.20;93.40
17998;DHT22;9124;48.144;17.098;2023-03-14T23:13:56;9.10;92.90
17998;DHT22;9124;48.144;17.098;2023-03-14T23:17:33;9.10;92.80
17998;DHT22;9124;48.144;17.098;2023-03-14T23:21:16;9.10;92.50
17998;DHT22;9124;48.144;17.098;2023-03-14T23:24:52;9.10;92.20
17998;DHT22;9124;48.144;17.098;2023-03-14T23:28:29;9.10;91.90
17998;DHT22;9124;48.144;17.098;2023-03-14T23:32:06;9.10;91.60
17998;DHT22;9124;48.144;17.098;2023-03-14T23:35:42;9.10;91.40
17998;DHT22;9124;48.144;17.098;2023-03-14T23:39:18;9.10;91.10
17998;DHT22;9124;48.144;17.098;2023-03-14T23:42:55;9.10;90.90
17998;DHT22;9124;48.144;17.098;2023-03-14T23:46:32;9.10;90.60
17998;DHT22;9124;48.144;17.098;2023-03-14T23:50:08;9.00;90.20
17998;DHT22;9124;48.144;17.098;2023-03-14T23:53:45;9.00;89.70
17998;DHT22;9124;48.144;17.098;2023-03-14T23:57:21;9.00;89.00
